<?xml version="1.0" encoding="UTF-8" standalone="no" ?>
<gpx xmlns="http://www.topografix.com/GPX/1/1" xmlns:xsi="http://www.w3.org/2001/XMLSchema-instance" xsi:schemaLocation="http://www.topografix.com/GPX/1/1 http://www.topografix.com/GPX/1/1/gpx.xsd" version="1.1" creator="VisuGPX - https://www.visugpx.com">
  <metadata>
    <name>Perles de la Gervanne G4V3 </name>
  </metadata>
  <trk>
    <name><![CDATA[Perles de la Gervanne G4V3 _1]]></name>
    <trkseg>
      <trkpt lat="44.81417" lon="5.16499">
        <ele>735</ele>
        <time>2021-09-03T12:01:50Z</time>
      </trkpt>
      <trkpt lat="44.81417" lon="5.16499">
        <ele>735</ele>
        <time>2021-09-03T12:01:50Z</time>
      </trkpt>
      <trkpt lat="44.81403" lon="5.16499">
        <ele>733</ele>
        <time>2021-09-03T12:02:09Z</time>
      </trkpt>
      <trkpt lat="44.81367" lon="5.16514">
        <ele>731</ele>
        <time>2021-09-03T12:02:59Z</time>
      </trkpt>
      <trkpt lat="44.81294" lon="5.16534">
        <ele>724</ele>
        <time>2021-09-03T12:04:38Z</time>
      </trkpt>
      <trkpt lat="44.81289" lon="5.16558">
        <ele>726</ele>
        <time>2021-09-03T12:05:02Z</time>
      </trkpt>
      <trkpt lat="44.81288" lon="5.1661">
        <ele>729</ele>
        <time>2021-09-03T12:05:51Z</time>
      </trkpt>
      <trkpt lat="44.81317" lon="5.1668">
        <ele>736</ele>
        <time>2021-09-03T12:07:08Z</time>
      </trkpt>
      <trkpt lat="44.81342" lon="5.16777">
        <ele>743</ele>
        <time>2021-09-03T12:08:45Z</time>
      </trkpt>
      <trkpt lat="44.81359" lon="5.16882">
        <ele>748</ele>
        <time>2021-09-03T12:10:27Z</time>
      </trkpt>
      <trkpt lat="44.8137" lon="5.16932">
        <ele>750</ele>
        <time>2021-09-03T12:11:17Z</time>
      </trkpt>
      <trkpt lat="44.81378" lon="5.17009">
        <ele>749</ele>
        <time>2021-09-03T12:12:31Z</time>
      </trkpt>
      <trkpt lat="44.8139" lon="5.1706">
        <ele>747</ele>
        <time>2021-09-03T12:13:21Z</time>
      </trkpt>
      <trkpt lat="44.81405" lon="5.17072">
        <ele>748</ele>
        <time>2021-09-03T12:13:44Z</time>
      </trkpt>
      <trkpt lat="44.81457" lon="5.1709">
        <ele>759</ele>
        <time>2021-09-03T12:14:56Z</time>
      </trkpt>
      <trkpt lat="44.81509" lon="5.17118">
        <ele>766</ele>
        <time>2021-09-03T12:16:10Z</time>
      </trkpt>
      <trkpt lat="44.81537" lon="5.17151">
        <ele>763</ele>
        <time>2021-09-03T12:16:59Z</time>
      </trkpt>
      <trkpt lat="44.81563" lon="5.17187">
        <ele>762</ele>
        <time>2021-09-03T12:17:48Z</time>
      </trkpt>
      <trkpt lat="44.81597" lon="5.17207">
        <ele>765</ele>
        <time>2021-09-03T12:18:37Z</time>
      </trkpt>
      <trkpt lat="44.81614" lon="5.17206">
        <ele>768</ele>
        <time>2021-09-03T12:18:59Z</time>
      </trkpt>
      <trkpt lat="44.81661" lon="5.17244">
        <ele>764</ele>
        <time>2021-09-03T12:20:12Z</time>
      </trkpt>
      <trkpt lat="44.81727" lon="5.17294">
        <ele>775</ele>
        <time>2021-09-03T12:21:52Z</time>
      </trkpt>
      <trkpt lat="44.81768" lon="5.17377">
        <ele>772</ele>
        <time>2021-09-03T12:23:27Z</time>
      </trkpt>
      <trkpt lat="44.8179" lon="5.17449">
        <ele>770</ele>
        <time>2021-09-03T12:24:42Z</time>
      </trkpt>
      <trkpt lat="44.81796" lon="5.17501">
        <ele>766</ele>
        <time>2021-09-03T12:25:32Z</time>
      </trkpt>
      <trkpt lat="44.81803" lon="5.17547">
        <ele>761</ele>
        <time>2021-09-03T12:26:16Z</time>
      </trkpt>
      <trkpt lat="44.81812" lon="5.17599">
        <ele>757</ele>
        <time>2021-09-03T12:27:07Z</time>
      </trkpt>
      <trkpt lat="44.81809" lon="5.17626">
        <ele>753</ele>
        <time>2021-09-03T12:27:33Z</time>
      </trkpt>
      <trkpt lat="44.81834" lon="5.17663">
        <ele>759</ele>
        <time>2021-09-03T12:28:21Z</time>
      </trkpt>
      <trkpt lat="44.81862" lon="5.1773">
        <ele>756</ele>
        <time>2021-09-03T12:29:35Z</time>
      </trkpt>
      <trkpt lat="44.81892" lon="5.17778">
        <ele>757</ele>
        <time>2021-09-03T12:30:35Z</time>
      </trkpt>
      <trkpt lat="44.81904" lon="5.17797">
        <ele>758</ele>
        <time>2021-09-03T12:30:59Z</time>
      </trkpt>
      <trkpt lat="44.81889" lon="5.17844">
        <ele>747</ele>
        <time>2021-09-03T12:31:48Z</time>
      </trkpt>
      <trkpt lat="44.81881" lon="5.17955">
        <ele>738</ele>
        <time>2021-09-03T12:33:34Z</time>
      </trkpt>
      <trkpt lat="44.819" lon="5.17994">
        <ele>740</ele>
        <time>2021-09-03T12:34:18Z</time>
      </trkpt>
      <trkpt lat="44.81942" lon="5.18041">
        <ele>744</ele>
        <time>2021-09-03T12:35:30Z</time>
      </trkpt>
      <trkpt lat="44.81969" lon="5.18136">
        <ele>737</ele>
        <time>2021-09-03T12:37:07Z</time>
      </trkpt>
      <trkpt lat="44.8198" lon="5.18157">
        <ele>737</ele>
        <time>2021-09-03T12:37:32Z</time>
      </trkpt>
      <trkpt lat="44.82007" lon="5.18192">
        <ele>735</ele>
        <time>2021-09-03T12:38:20Z</time>
      </trkpt>
      <trkpt lat="44.82033" lon="5.18229">
        <ele>730</ele>
        <time>2021-09-03T12:39:10Z</time>
      </trkpt>
      <trkpt lat="44.82091" lon="5.18329">
        <ele>724</ele>
        <time>2021-09-03T12:41:12Z</time>
      </trkpt>
      <trkpt lat="44.82115" lon="5.18401">
        <ele>720</ele>
        <time>2021-09-03T12:42:27Z</time>
      </trkpt>
      <trkpt lat="44.82136" lon="5.18442">
        <ele>715</ele>
        <time>2021-09-03T12:43:15Z</time>
      </trkpt>
      <trkpt lat="44.82138" lon="5.18458">
        <ele>711</ele>
        <time>2021-09-03T12:43:31Z</time>
      </trkpt>
      <trkpt lat="44.82125" lon="5.1847">
        <ele>706</ele>
        <time>2021-09-03T12:43:51Z</time>
      </trkpt>
      <trkpt lat="44.82141" lon="5.18482">
        <ele>705</ele>
        <time>2021-09-03T12:44:16Z</time>
      </trkpt>
      <trkpt lat="44.82173" lon="5.18508">
        <ele>703</ele>
        <time>2021-09-03T12:45:05Z</time>
      </trkpt>
      <trkpt lat="44.82192" lon="5.18511">
        <ele>703</ele>
        <time>2021-09-03T12:45:30Z</time>
      </trkpt>
      <trkpt lat="44.8221" lon="5.18511">
        <ele>703</ele>
        <time>2021-09-03T12:45:54Z</time>
      </trkpt>
      <trkpt lat="44.82266" lon="5.18519">
        <ele>703</ele>
        <time>2021-09-03T12:47:09Z</time>
      </trkpt>
      <trkpt lat="44.82302" lon="5.18528">
        <ele>702</ele>
        <time>2021-09-03T12:47:58Z</time>
      </trkpt>
      <trkpt lat="44.8233" lon="5.18558">
        <ele>695</ele>
        <time>2021-09-03T12:48:45Z</time>
      </trkpt>
      <trkpt lat="44.82383" lon="5.18573">
        <ele>695</ele>
        <time>2021-09-03T12:49:57Z</time>
      </trkpt>
      <trkpt lat="44.8245" lon="5.18613">
        <ele>688</ele>
        <time>2021-09-03T12:51:34Z</time>
      </trkpt>
      <trkpt lat="44.82504" lon="5.18632">
        <ele>683</ele>
        <time>2021-09-03T12:52:49Z</time>
      </trkpt>
      <trkpt lat="44.82559" lon="5.18632">
        <ele>676</ele>
        <time>2021-09-03T12:54:02Z</time>
      </trkpt>
      <trkpt lat="44.82613" lon="5.18633">
        <ele>668</ele>
        <time>2021-09-03T12:55:14Z</time>
      </trkpt>
      <trkpt lat="44.82641" lon="5.18602">
        <ele>668</ele>
        <time>2021-09-03T12:56:02Z</time>
      </trkpt>
      <trkpt lat="44.82673" lon="5.18546">
        <ele>673</ele>
        <time>2021-09-03T12:57:10Z</time>
      </trkpt>
      <trkpt lat="44.82687" lon="5.18564">
        <ele>670</ele>
        <time>2021-09-03T12:57:35Z</time>
      </trkpt>
      <trkpt lat="44.82738" lon="5.18601">
        <ele>664</ele>
        <time>2021-09-03T12:58:52Z</time>
      </trkpt>
      <trkpt lat="44.82752" lon="5.18618">
        <ele>661</ele>
        <time>2021-09-03T12:59:16Z</time>
      </trkpt>
      <trkpt lat="44.82767" lon="5.18634">
        <ele>657</ele>
        <time>2021-09-03T12:59:41Z</time>
      </trkpt>
      <trkpt lat="44.82784" lon="5.18645">
        <ele>654</ele>
        <time>2021-09-03T13:00:06Z</time>
      </trkpt>
      <trkpt lat="44.82835" lon="5.18633">
        <ele>657</ele>
        <time>2021-09-03T13:01:15Z</time>
      </trkpt>
      <trkpt lat="44.8289" lon="5.18633">
        <ele>652</ele>
        <time>2021-09-03T13:02:29Z</time>
      </trkpt>
      <trkpt lat="44.82984" lon="5.18636">
        <ele>647</ele>
        <time>2021-09-03T13:04:34Z</time>
      </trkpt>
      <trkpt lat="44.83039" lon="5.18644">
        <ele>647</ele>
        <time>2021-09-03T13:05:48Z</time>
      </trkpt>
      <trkpt lat="44.83107" lon="5.18684">
        <ele>640</ele>
        <time>2021-09-03T13:07:26Z</time>
      </trkpt>
      <trkpt lat="44.83137" lon="5.1872">
        <ele>635</ele>
        <time>2021-09-03T13:08:19Z</time>
      </trkpt>
      <trkpt lat="44.83174" lon="5.18723">
        <ele>638</ele>
        <time>2021-09-03T13:09:08Z</time>
      </trkpt>
      <trkpt lat="44.83225" lon="5.18745">
        <ele>629</ele>
        <time>2021-09-03T13:10:19Z</time>
      </trkpt>
      <trkpt lat="44.83246" lon="5.18761">
        <ele>624</ele>
        <time>2021-09-03T13:10:51Z</time>
      </trkpt>
      <trkpt lat="44.83232" lon="5.18772">
        <ele>623</ele>
        <time>2021-09-03T13:11:13Z</time>
      </trkpt>
      <trkpt lat="44.83195" lon="5.18781">
        <ele>625</ele>
        <time>2021-09-03T13:12:03Z</time>
      </trkpt>
      <trkpt lat="44.83209" lon="5.18795">
        <ele>622</ele>
        <time>2021-09-03T13:12:26Z</time>
      </trkpt>
      <trkpt lat="44.83246" lon="5.18805">
        <ele>617</ele>
        <time>2021-09-03T13:13:16Z</time>
      </trkpt>
      <trkpt lat="44.83281" lon="5.18825">
        <ele>608</ele>
        <time>2021-09-03T13:14:06Z</time>
      </trkpt>
      <trkpt lat="44.83314" lon="5.1885">
        <ele>599</ele>
        <time>2021-09-03T13:14:56Z</time>
      </trkpt>
      <trkpt lat="44.83351" lon="5.18853">
        <ele>590</ele>
        <time>2021-09-03T13:15:46Z</time>
      </trkpt>
      <trkpt lat="44.83383" lon="5.18819">
        <ele>588</ele>
        <time>2021-09-03T13:16:39Z</time>
      </trkpt>
      <trkpt lat="44.83412" lon="5.18786">
        <ele>590</ele>
        <time>2021-09-03T13:17:29Z</time>
      </trkpt>
      <trkpt lat="44.83452" lon="5.18736">
        <ele>593</ele>
        <time>2021-09-03T13:18:40Z</time>
      </trkpt>
      <trkpt lat="44.83483" lon="5.18751">
        <ele>579</ele>
        <time>2021-09-03T13:19:24Z</time>
      </trkpt>
      <trkpt lat="44.83535" lon="5.1871">
        <ele>585</ele>
        <time>2021-09-03T13:20:44Z</time>
      </trkpt>
      <trkpt lat="44.83555" lon="5.18703">
        <ele>584</ele>
        <time>2021-09-03T13:21:11Z</time>
      </trkpt>
      <trkpt lat="44.83591" lon="5.18723">
        <ele>573</ele>
        <time>2021-09-03T13:22:03Z</time>
      </trkpt>
      <trkpt lat="44.83646" lon="5.18706">
        <ele>574</ele>
        <time>2021-09-03T13:23:18Z</time>
      </trkpt>
      <trkpt lat="44.83698" lon="5.18697">
        <ele>573</ele>
        <time>2021-09-03T13:24:28Z</time>
      </trkpt>
      <trkpt lat="44.83707" lon="5.18703">
        <ele>573</ele>
        <time>2021-09-03T17:51:34Z</time>
      </trkpt>
      <trkpt lat="44.83718" lon="5.1874">
        <ele>571</ele>
        <time>2021-09-03T17:50:56Z</time>
      </trkpt>
      <trkpt lat="44.837" lon="5.18771">
        <ele>576</ele>
        <time>2021-09-03T17:50:18Z</time>
      </trkpt>
      <trkpt lat="44.83684" lon="5.18768">
        <ele>573</ele>
        <time>2021-09-03T17:49:57Z</time>
      </trkpt>
      <trkpt lat="44.83643" lon="5.18793">
        <ele>576</ele>
        <time>2021-09-03T17:48:57Z</time>
      </trkpt>
      <trkpt lat="44.83579" lon="5.18867">
        <ele>576</ele>
        <time>2021-09-03T17:47:07Z</time>
      </trkpt>
      <trkpt lat="44.83549" lon="5.189">
        <ele>576</ele>
        <time>2021-09-03T17:46:16Z</time>
      </trkpt>
      <trkpt lat="44.83514" lon="5.18942">
        <ele>576</ele>
        <time>2021-09-03T17:45:15Z</time>
      </trkpt>
      <trkpt lat="44.83455" lon="5.19025">
        <ele>582</ele>
        <time>2021-09-03T17:43:23Z</time>
      </trkpt>
      <trkpt lat="44.8343" lon="5.19078">
        <ele>586</ele>
        <time>2021-09-03T17:42:23Z</time>
      </trkpt>
      <trkpt lat="44.83412" lon="5.19132">
        <ele>594</ele>
        <time>2021-09-03T17:41:27Z</time>
      </trkpt>
      <trkpt lat="44.834" lon="5.19151">
        <ele>597</ele>
        <time>2021-09-03T17:41:03Z</time>
      </trkpt>
      <trkpt lat="44.8334" lon="5.19193">
        <ele>595</ele>
        <time>2021-09-03T17:39:33Z</time>
      </trkpt>
      <trkpt lat="44.83293" lon="5.19217">
        <ele>594</ele>
        <time>2021-09-03T17:38:26Z</time>
      </trkpt>
      <trkpt lat="44.8325" lon="5.19271">
        <ele>599</ele>
        <time>2021-09-03T17:37:10Z</time>
      </trkpt>
      <trkpt lat="44.83184" lon="5.19371">
        <ele>605</ele>
        <time>2021-09-03T17:35:00Z</time>
      </trkpt>
      <trkpt lat="44.83152" lon="5.19403">
        <ele>607</ele>
        <time>2021-09-03T17:34:08Z</time>
      </trkpt>
      <trkpt lat="44.83096" lon="5.19399">
        <ele>602</ele>
        <time>2021-09-03T17:32:53Z</time>
      </trkpt>
      <trkpt lat="44.83058" lon="5.19404">
        <ele>601</ele>
        <time>2021-09-03T17:32:02Z</time>
      </trkpt>
      <trkpt lat="44.8304" lon="5.1941">
        <ele>602</ele>
        <time>2021-09-03T17:31:38Z</time>
      </trkpt>
      <trkpt lat="44.83004" lon="5.19418">
        <ele>601</ele>
        <time>2021-09-03T17:30:49Z</time>
      </trkpt>
      <trkpt lat="44.82981" lon="5.19458">
        <ele>604</ele>
        <time>2021-09-03T17:30:00Z</time>
      </trkpt>
      <trkpt lat="44.82942" lon="5.19512">
        <ele>602</ele>
        <time>2021-09-03T17:28:47Z</time>
      </trkpt>
      <trkpt lat="44.82907" lon="5.19523">
        <ele>594</ele>
        <time>2021-09-03T17:27:59Z</time>
      </trkpt>
      <trkpt lat="44.82896" lon="5.19517">
        <ele>591</ele>
        <time>2021-09-03T17:27:44Z</time>
      </trkpt>
      <trkpt lat="44.82883" lon="5.19514">
        <ele>587</ele>
        <time>2021-09-03T17:27:26Z</time>
      </trkpt>
      <trkpt lat="44.82849" lon="5.1952">
        <ele>579</ele>
        <time>2021-09-03T17:26:40Z</time>
      </trkpt>
      <trkpt lat="44.82829" lon="5.19543">
        <ele>576</ele>
        <time>2021-09-03T17:26:06Z</time>
      </trkpt>
      <trkpt lat="44.82789" lon="5.19578">
        <ele>569</ele>
        <time>2021-09-03T17:25:03Z</time>
      </trkpt>
      <trkpt lat="44.82769" lon="5.19591">
        <ele>566</ele>
        <time>2021-09-03T17:24:34Z</time>
      </trkpt>
      <trkpt lat="44.82786" lon="5.19564">
        <ele>565</ele>
        <time>2021-09-03T17:24:00Z</time>
      </trkpt>
      <trkpt lat="44.82813" lon="5.19527">
        <ele>567</ele>
        <time>2021-09-03T17:23:09Z</time>
      </trkpt>
      <trkpt lat="44.82821" lon="5.19445">
        <ele>563</ele>
        <time>2021-09-03T17:21:51Z</time>
      </trkpt>
      <trkpt lat="44.82798" lon="5.19401">
        <ele>546</ele>
        <time>2021-09-03T17:20:59Z</time>
      </trkpt>
      <trkpt lat="44.82784" lon="5.19383">
        <ele>538</ele>
        <time>2021-09-03T17:20:34Z</time>
      </trkpt>
      <trkpt lat="44.82773" lon="5.19364">
        <ele>532</ele>
        <time>2021-09-03T17:20:11Z</time>
      </trkpt>
      <trkpt lat="44.82759" lon="5.19392">
        <ele>527</ele>
        <time>2021-09-03T17:19:38Z</time>
      </trkpt>
      <trkpt lat="44.82771" lon="5.19414">
        <ele>533</ele>
        <time>2021-09-03T17:19:12Z</time>
      </trkpt>
      <trkpt lat="44.82779" lon="5.19469">
        <ele>542</ele>
        <time>2021-09-03T17:18:19Z</time>
      </trkpt>
      <trkpt lat="44.82764" lon="5.19461">
        <ele>534</ele>
        <time>2021-09-03T17:17:58Z</time>
      </trkpt>
      <trkpt lat="44.82732" lon="5.1946">
        <ele>521</ele>
        <time>2021-09-03T17:17:15Z</time>
      </trkpt>
      <trkpt lat="44.82683" lon="5.19436">
        <ele>503</ele>
        <time>2021-09-03T17:16:06Z</time>
      </trkpt>
      <trkpt lat="44.82716" lon="5.19236">
        <ele>525</ele>
        <time>2021-09-03T17:12:51Z</time>
      </trkpt>
      <trkpt lat="44.82765" lon="5.19248">
        <ele>522</ele>
        <time>2021-09-03T17:11:45Z</time>
      </trkpt>
      <trkpt lat="44.82707" lon="5.19261">
        <ele>523</ele>
        <time>2021-09-03T17:10:27Z</time>
      </trkpt>
      <trkpt lat="44.82695" lon="5.19315">
        <ele>521</ele>
        <time>2021-09-03T17:09:33Z</time>
      </trkpt>
      <trkpt lat="44.82683" lon="5.19382">
        <ele>508</ele>
        <time>2021-09-03T17:08:28Z</time>
      </trkpt>
      <trkpt lat="44.82699" lon="5.19428">
        <ele>507</ele>
        <time>2021-09-03T17:07:39Z</time>
      </trkpt>
      <trkpt lat="44.82698" lon="5.19451">
        <ele>509</ele>
        <time>2021-09-03T17:07:17Z</time>
      </trkpt>
      <trkpt lat="44.8271" lon="5.19466">
        <ele>514</ele>
        <time>2021-09-03T17:06:56Z</time>
      </trkpt>
      <trkpt lat="44.82726" lon="5.19471">
        <ele>520</ele>
        <time>2021-09-03T17:06:34Z</time>
      </trkpt>
      <trkpt lat="44.82748" lon="5.19464">
        <ele>526</ele>
        <time>2021-09-03T17:06:04Z</time>
      </trkpt>
      <trkpt lat="44.82772" lon="5.19455">
        <ele>537</ele>
        <time>2021-09-03T17:05:31Z</time>
      </trkpt>
      <trkpt lat="44.8278" lon="5.19473">
        <ele>543</ele>
        <time>2021-09-03T17:05:11Z</time>
      </trkpt>
      <trkpt lat="44.82778" lon="5.19418">
        <ele>538</ele>
        <time>2021-09-03T17:04:19Z</time>
      </trkpt>
      <trkpt lat="44.8276" lon="5.19374">
        <ele>528</ele>
        <time>2021-09-03T17:03:30Z</time>
      </trkpt>
      <trkpt lat="44.82771" lon="5.19357">
        <ele>531</ele>
        <time>2021-09-03T17:03:09Z</time>
      </trkpt>
      <trkpt lat="44.82771" lon="5.19356">
        <ele>531</ele>
        <time>2021-09-03T17:03:08Z</time>
      </trkpt>
      <trkpt lat="44.82774" lon="5.19381">
        <ele>534</ele>
        <time>2021-09-03T17:02:44Z</time>
      </trkpt>
      <trkpt lat="44.82793" lon="5.19394">
        <ele>543</ele>
        <time>2021-09-03T17:02:16Z</time>
      </trkpt>
      <trkpt lat="44.82819" lon="5.19436">
        <ele>561</ele>
        <time>2021-09-03T17:01:23Z</time>
      </trkpt>
      <trkpt lat="44.82824" lon="5.19489">
        <ele>567</ele>
        <time>2021-09-03T17:00:32Z</time>
      </trkpt>
      <trkpt lat="44.82805" lon="5.19544">
        <ele>567</ele>
        <time>2021-09-03T16:59:34Z</time>
      </trkpt>
      <trkpt lat="44.8277" lon="5.19582">
        <ele>565</ele>
        <time>2021-09-03T16:58:35Z</time>
      </trkpt>
      <trkpt lat="44.82788" lon="5.19577">
        <ele>569</ele>
        <time>2021-09-03T16:58:11Z</time>
      </trkpt>
      <trkpt lat="44.82836" lon="5.1954">
        <ele>578</ele>
        <time>2021-09-03T16:56:58Z</time>
      </trkpt>
      <trkpt lat="44.8285" lon="5.19523">
        <ele>580</ele>
        <time>2021-09-03T16:56:33Z</time>
      </trkpt>
      <trkpt lat="44.82867" lon="5.19505">
        <ele>582</ele>
        <time>2021-09-03T16:56:05Z</time>
      </trkpt>
      <trkpt lat="44.82871" lon="5.19508">
        <ele>583</ele>
        <time>2021-09-03T16:55:59Z</time>
      </trkpt>
      <trkpt lat="44.82923" lon="5.19529">
        <ele>599</ele>
        <time>2021-09-03T16:54:47Z</time>
      </trkpt>
      <trkpt lat="44.82951" lon="5.19498">
        <ele>602</ele>
        <time>2021-09-03T16:53:59Z</time>
      </trkpt>
      <trkpt lat="44.83" lon="5.19424">
        <ele>602</ele>
        <time>2021-09-03T16:52:23Z</time>
      </trkpt>
      <trkpt lat="44.83017" lon="5.19414">
        <ele>601</ele>
        <time>2021-09-03T16:51:59Z</time>
      </trkpt>
      <trkpt lat="44.83084" lon="5.19401">
        <ele>602</ele>
        <time>2021-09-03T16:50:28Z</time>
      </trkpt>
      <trkpt lat="44.83102" lon="5.194">
        <ele>603</ele>
        <time>2021-09-03T16:50:04Z</time>
      </trkpt>
      <trkpt lat="44.83139" lon="5.19408">
        <ele>607</ele>
        <time>2021-09-03T16:49:14Z</time>
      </trkpt>
      <trkpt lat="44.83173" lon="5.19389">
        <ele>606</ele>
        <time>2021-09-03T16:48:26Z</time>
      </trkpt>
      <trkpt lat="44.83213" lon="5.19336">
        <ele>605</ele>
        <time>2021-09-03T16:47:12Z</time>
      </trkpt>
      <trkpt lat="44.83286" lon="5.19225">
        <ele>595</ele>
        <time>2021-09-03T16:44:49Z</time>
      </trkpt>
      <trkpt lat="44.83319" lon="5.19206">
        <ele>595</ele>
        <time>2021-09-03T16:44:02Z</time>
      </trkpt>
      <trkpt lat="44.83336" lon="5.19195">
        <ele>594</ele>
        <time>2021-09-03T16:43:37Z</time>
      </trkpt>
      <trkpt lat="44.83365" lon="5.19162">
        <ele>591</ele>
        <time>2021-09-03T16:42:47Z</time>
      </trkpt>
      <trkpt lat="44.83385" lon="5.19144">
        <ele>591</ele>
        <time>2021-09-03T16:42:15Z</time>
      </trkpt>
      <trkpt lat="44.834" lon="5.19121">
        <ele>587</ele>
        <time>2021-09-03T16:41:46Z</time>
      </trkpt>
      <trkpt lat="44.83409" lon="5.19087">
        <ele>577</ele>
        <time>2021-09-03T16:41:11Z</time>
      </trkpt>
      <trkpt lat="44.8344" lon="5.19025">
        <ele>576</ele>
        <time>2021-09-03T16:39:59Z</time>
      </trkpt>
      <trkpt lat="44.83478" lon="5.18972">
        <ele>573</ele>
        <time>2021-09-03T16:38:48Z</time>
      </trkpt>
      <trkpt lat="44.8353" lon="5.18902">
        <ele>571</ele>
        <time>2021-09-03T16:37:12Z</time>
      </trkpt>
      <trkpt lat="44.83573" lon="5.18857">
        <ele>572</ele>
        <time>2021-09-03T16:36:01Z</time>
      </trkpt>
      <trkpt lat="44.83625" lon="5.18786">
        <ele>572</ele>
        <time>2021-09-03T16:34:24Z</time>
      </trkpt>
      <trkpt lat="44.83658" lon="5.18769">
        <ele>572</ele>
        <time>2021-09-03T16:33:37Z</time>
      </trkpt>
      <trkpt lat="44.83675" lon="5.18765">
        <ele>572</ele>
        <time>2021-09-03T16:33:14Z</time>
      </trkpt>
      <trkpt lat="44.83714" lon="5.18747">
        <ele>571</ele>
        <time>2021-09-03T16:32:20Z</time>
      </trkpt>
      <trkpt lat="44.83707" lon="5.18722">
        <ele>572</ele>
        <time>2021-09-03T16:31:54Z</time>
      </trkpt>
      <trkpt lat="44.83703" lon="5.18693">
        <ele>574</ele>
        <time>2021-09-03T16:31:26Z</time>
      </trkpt>
      <trkpt lat="44.83717" lon="5.18679">
        <ele>575</ele>
        <time>2021-09-03T16:31:03Z</time>
      </trkpt>
      <trkpt lat="44.83764" lon="5.18649">
        <ele>592</ele>
        <time>2021-09-03T16:29:54Z</time>
      </trkpt>
      <trkpt lat="44.83803" lon="5.18676">
        <ele>601</ele>
        <time>2021-09-03T16:28:56Z</time>
      </trkpt>
      <trkpt lat="44.83824" lon="5.18749">
        <ele>581</ele>
        <time>2021-09-03T16:27:42Z</time>
      </trkpt>
      <trkpt lat="44.83839" lon="5.18855">
        <ele>597</ele>
        <time>2021-09-03T16:26:00Z</time>
      </trkpt>
      <trkpt lat="44.8387" lon="5.18881">
        <ele>608</ele>
        <time>2021-09-03T16:25:11Z</time>
      </trkpt>
      <trkpt lat="44.83921" lon="5.18872">
        <ele>618</ele>
        <time>2021-09-03T16:24:03Z</time>
      </trkpt>
      <trkpt lat="44.83942" lon="5.18873">
        <ele>630</ele>
        <time>2021-09-03T16:23:35Z</time>
      </trkpt>
      <trkpt lat="44.83986" lon="5.18927">
        <ele>630</ele>
        <time>2021-09-03T16:22:17Z</time>
      </trkpt>
      <trkpt lat="44.8402" lon="5.18945">
        <ele>627</ele>
        <time>2021-09-03T16:21:29Z</time>
      </trkpt>
      <trkpt lat="44.84079" lon="5.18931">
        <ele>611</ele>
        <time>2021-09-03T16:20:09Z</time>
      </trkpt>
      <trkpt lat="44.84138" lon="5.18902">
        <ele>613</ele>
        <time>2021-09-03T16:18:45Z</time>
      </trkpt>
      <trkpt lat="44.84163" lon="5.18894">
        <ele>613</ele>
        <time>2021-09-03T16:18:11Z</time>
      </trkpt>
      <trkpt lat="44.84146" lon="5.18889">
        <ele>617</ele>
        <time>2021-09-03T13:37:00Z</time>
      </trkpt>
      <trkpt lat="44.84189" lon="5.18849">
        <ele>629</ele>
        <time>2021-09-03T13:38:09Z</time>
      </trkpt>
      <trkpt lat="44.8418" lon="5.1882">
        <ele>641</ele>
        <time>2021-09-03T13:38:39Z</time>
      </trkpt>
      <trkpt lat="44.84191" lon="5.18812">
        <ele>650</ele>
        <time>2021-09-03T13:38:55Z</time>
      </trkpt>
      <trkpt lat="44.84238" lon="5.18801">
        <ele>665</ele>
        <time>2021-09-03T13:39:59Z</time>
      </trkpt>
      <trkpt lat="44.84246" lon="5.1882">
        <ele>656</ele>
        <time>2021-09-03T13:40:20Z</time>
      </trkpt>
      <trkpt lat="44.84233" lon="5.18863">
        <ele>638</ele>
        <time>2021-09-03T13:41:04Z</time>
      </trkpt>
      <trkpt lat="44.84285" lon="5.18854">
        <ele>648</ele>
        <time>2021-09-03T13:42:14Z</time>
      </trkpt>
      <trkpt lat="44.84329" lon="5.18829">
        <ele>657</ele>
        <time>2021-09-03T13:43:17Z</time>
      </trkpt>
      <trkpt lat="44.84384" lon="5.18803">
        <ele>667</ele>
        <time>2021-09-03T13:44:35Z</time>
      </trkpt>
      <trkpt lat="44.84423" lon="5.18795">
        <ele>671</ele>
        <time>2021-09-03T13:45:27Z</time>
      </trkpt>
      <trkpt lat="44.84471" lon="5.18819">
        <ele>669</ele>
        <time>2021-09-03T13:46:35Z</time>
      </trkpt>
      <trkpt lat="44.84489" lon="5.18828">
        <ele>670</ele>
        <time>2021-09-03T13:47:01Z</time>
      </trkpt>
      <trkpt lat="44.84576" lon="5.18854">
        <ele>668</ele>
        <time>2021-09-03T13:48:59Z</time>
      </trkpt>
      <trkpt lat="44.84604" lon="5.18878">
        <ele>662.4</ele>
      </trkpt>
      <trkpt lat="44.84608" lon="5.18882">
        <ele>661</ele>
        <time>2021-09-03T13:49:50Z</time>
      </trkpt>
      <trkpt lat="44.84641" lon="5.18891">
        <ele>658</ele>
        <time>2021-09-03T13:50:34Z</time>
      </trkpt>
      <trkpt lat="44.84674" lon="5.1888">
        <ele>662</ele>
        <time>2021-09-03T13:51:20Z</time>
      </trkpt>
      <trkpt lat="44.84706" lon="5.18888">
        <ele>665</ele>
        <time>2021-09-03T13:52:03Z</time>
      </trkpt>
      <trkpt lat="44.84718" lon="5.18941">
        <ele>655</ele>
        <time>2021-09-03T13:52:56Z</time>
      </trkpt>
      <trkpt lat="44.84723" lon="5.19026">
        <ele>648</ele>
        <time>2021-09-03T13:54:16Z</time>
      </trkpt>
      <trkpt lat="44.84737" lon="5.19038">
        <ele>647</ele>
        <time>2021-09-03T13:54:38Z</time>
      </trkpt>
      <trkpt lat="44.84776" lon="5.19085">
        <ele>647</ele>
        <time>2021-09-03T13:55:47Z</time>
      </trkpt>
      <trkpt lat="44.8482" lon="5.19143">
        <ele>654</ele>
        <time>2021-09-03T13:57:07Z</time>
      </trkpt>
      <trkpt lat="44.84843" lon="5.19187">
        <ele>658</ele>
        <time>2021-09-03T13:57:59Z</time>
      </trkpt>
      <trkpt lat="44.84851" lon="5.19236">
        <ele>664</ele>
        <time>2021-09-03T13:58:46Z</time>
      </trkpt>
      <trkpt lat="44.84869" lon="5.19283">
        <ele>670</ele>
        <time>2021-09-03T13:59:37Z</time>
      </trkpt>
      <trkpt lat="44.84883" lon="5.19293">
        <ele>671</ele>
        <time>2021-09-03T13:59:58Z</time>
      </trkpt>
      <trkpt lat="44.84902" lon="5.19299">
        <ele>673</ele>
        <time>2021-09-03T14:00:24Z</time>
      </trkpt>
      <trkpt lat="44.84957" lon="5.19319">
        <ele>678</ele>
        <time>2021-09-03T14:01:40Z</time>
      </trkpt>
      <trkpt lat="44.85014" lon="5.19349">
        <ele>686</ele>
        <time>2021-09-03T14:03:01Z</time>
      </trkpt>
      <trkpt lat="44.85051" lon="5.19361">
        <ele>691</ele>
        <time>2021-09-03T14:03:51Z</time>
      </trkpt>
      <trkpt lat="44.85099" lon="5.1935">
        <ele>694</ele>
        <time>2021-09-03T14:04:56Z</time>
      </trkpt>
      <trkpt lat="44.85137" lon="5.19358">
        <ele>699</ele>
        <time>2021-09-03T14:05:48Z</time>
      </trkpt>
      <trkpt lat="44.85178" lon="5.19354">
        <ele>704</ele>
        <time>2021-09-03T14:06:43Z</time>
      </trkpt>
      <trkpt lat="44.85224" lon="5.19332">
        <ele>708</ele>
        <time>2021-09-03T14:07:47Z</time>
      </trkpt>
      <trkpt lat="44.85261" lon="5.19299">
        <ele>707</ele>
        <time>2021-09-03T14:08:46Z</time>
      </trkpt>
      <trkpt lat="44.853" lon="5.19246">
        <ele>707</ele>
        <time>2021-09-03T14:09:58Z</time>
      </trkpt>
      <trkpt lat="44.8531" lon="5.19192">
        <ele>700</ele>
        <time>2021-09-03T14:10:51Z</time>
      </trkpt>
      <trkpt lat="44.85312" lon="5.19164">
        <ele>696</ele>
        <time>2021-09-03T14:11:17Z</time>
      </trkpt>
      <trkpt lat="44.85315" lon="5.19137">
        <ele>693</ele>
        <time>2021-09-03T14:11:43Z</time>
      </trkpt>
      <trkpt lat="44.8531" lon="5.19125">
        <ele>690</ele>
        <time>2021-09-03T14:11:56Z</time>
      </trkpt>
      <trkpt lat="44.85301" lon="5.1912">
        <ele>688</ele>
        <time>2021-09-03T14:12:09Z</time>
      </trkpt>
      <trkpt lat="44.85317" lon="5.19098">
        <ele>687</ele>
        <time>2021-09-03T14:12:39Z</time>
      </trkpt>
      <trkpt lat="44.8529" lon="5.19099">
        <ele>684</ele>
        <time>2021-09-03T14:13:15Z</time>
      </trkpt>
      <trkpt lat="44.85307" lon="5.19084">
        <ele>684</ele>
        <time>2021-09-03T14:13:42Z</time>
      </trkpt>
      <trkpt lat="44.8535" lon="5.19096">
        <ele>692</ele>
        <time>2021-09-03T14:14:40Z</time>
      </trkpt>
      <trkpt lat="44.85398" lon="5.19105">
        <ele>702</ele>
        <time>2021-09-03T14:15:45Z</time>
      </trkpt>
      <trkpt lat="44.85437" lon="5.19099">
        <ele>707</ele>
        <time>2021-09-03T14:16:37Z</time>
      </trkpt>
      <trkpt lat="44.85482" lon="5.19101">
        <ele>710</ele>
        <time>2021-09-03T14:17:38Z</time>
      </trkpt>
      <trkpt lat="44.8553" lon="5.19114">
        <ele>716</ele>
        <time>2021-09-03T14:18:43Z</time>
      </trkpt>
      <trkpt lat="44.85625" lon="5.19148">
        <ele>723</ele>
        <time>2021-09-03T14:20:54Z</time>
      </trkpt>
      <trkpt lat="44.85666" lon="5.19096">
        <ele>727</ele>
        <time>2021-09-03T14:22:07Z</time>
      </trkpt>
      <trkpt lat="44.85682" lon="5.19011">
        <ele>737</ele>
        <time>2021-09-03T14:23:30Z</time>
      </trkpt>
      <trkpt lat="44.85742" lon="5.19015">
        <ele>739</ele>
        <time>2021-09-03T14:24:50Z</time>
      </trkpt>
      <trkpt lat="44.85789" lon="5.18965">
        <ele>747</ele>
        <time>2021-09-03T14:26:09Z</time>
      </trkpt>
      <trkpt lat="44.8581" lon="5.18921">
        <ele>748</ele>
        <time>2021-09-03T14:26:59Z</time>
      </trkpt>
      <trkpt lat="44.85875" lon="5.1889">
        <ele>756</ele>
        <time>2021-09-03T14:28:31Z</time>
      </trkpt>
      <trkpt lat="44.85945" lon="5.18924">
        <ele>751</ele>
        <time>2021-09-03T14:30:10Z</time>
      </trkpt>
      <trkpt lat="44.86004" lon="5.18968">
        <ele>759</ele>
        <time>2021-09-03T14:31:39Z</time>
      </trkpt>
      <trkpt lat="44.86087" lon="5.19016">
        <ele>765</ele>
        <time>2021-09-03T14:33:38Z</time>
      </trkpt>
      <trkpt lat="44.86128" lon="5.19007">
        <ele>771</ele>
        <time>2021-09-03T14:34:34Z</time>
      </trkpt>
      <trkpt lat="44.86146" lon="5.18959">
        <ele>773</ele>
        <time>2021-09-03T14:35:25Z</time>
      </trkpt>
      <trkpt lat="44.8615" lon="5.18923">
        <ele>773</ele>
        <time>2021-09-03T14:36:00Z</time>
      </trkpt>
      <trkpt lat="44.86172" lon="5.18903">
        <ele>776</ele>
        <time>2021-09-03T14:36:34Z</time>
      </trkpt>
      <trkpt lat="44.86266" lon="5.18902">
        <ele>773</ele>
        <time>2021-09-03T14:38:40Z</time>
      </trkpt>
      <trkpt lat="44.8631" lon="5.18946">
        <ele>776</ele>
        <time>2021-09-03T14:39:52Z</time>
      </trkpt>
      <trkpt lat="44.86359" lon="5.18984">
        <ele>785</ele>
        <time>2021-09-03T14:41:06Z</time>
      </trkpt>
      <trkpt lat="44.86395" lon="5.18953">
        <ele>788</ele>
        <time>2021-09-03T14:42:03Z</time>
      </trkpt>
      <trkpt lat="44.86439" lon="5.18914">
        <ele>788</ele>
        <time>2021-09-03T14:43:12Z</time>
      </trkpt>
      <trkpt lat="44.86497" lon="5.18882">
        <ele>795</ele>
        <time>2021-09-03T14:44:35Z</time>
      </trkpt>
      <trkpt lat="44.86548" lon="5.18859">
        <ele>797</ele>
        <time>2021-09-03T14:45:47Z</time>
      </trkpt>
      <trkpt lat="44.86555" lon="5.18876">
        <ele>795</ele>
        <time>2021-09-03T14:46:05Z</time>
      </trkpt>
      <trkpt lat="44.86602" lon="5.18892">
        <ele>792</ele>
        <time>2021-09-03T14:47:10Z</time>
      </trkpt>
      <trkpt lat="44.86683" lon="5.1894">
        <ele>794</ele>
        <time>2021-09-03T14:49:07Z</time>
      </trkpt>
      <trkpt lat="44.86647" lon="5.18959">
        <ele>794</ele>
        <time>2021-09-03T14:49:58Z</time>
      </trkpt>
      <trkpt lat="44.86623" lon="5.18942">
        <ele>792</ele>
        <time>2021-09-03T14:50:34Z</time>
      </trkpt>
      <trkpt lat="44.86572" lon="5.18951">
        <ele>794</ele>
        <time>2021-09-03T14:51:43Z</time>
      </trkpt>
      <trkpt lat="44.86538" lon="5.18959">
        <ele>797</ele>
        <time>2021-09-03T14:52:29Z</time>
      </trkpt>
      <trkpt lat="44.86528" lon="5.18978">
        <ele>801</ele>
        <time>2021-09-03T14:52:51Z</time>
      </trkpt>
      <trkpt lat="44.86522" lon="5.18999">
        <ele>806</ele>
        <time>2021-09-03T14:53:13Z</time>
      </trkpt>
      <trkpt lat="44.86519" lon="5.1903">
        <ele>813</ele>
        <time>2021-09-03T14:53:42Z</time>
      </trkpt>
      <trkpt lat="44.86503" lon="5.19074">
        <ele>824</ele>
        <time>2021-09-03T14:54:29Z</time>
      </trkpt>
      <trkpt lat="44.86461" lon="5.19083">
        <ele>825</ele>
        <time>2021-09-03T14:55:26Z</time>
      </trkpt>
      <trkpt lat="44.86411" lon="5.19074">
        <ele>820</ele>
        <time>2021-09-03T14:56:33Z</time>
      </trkpt>
      <trkpt lat="44.86383" lon="5.19082">
        <ele>821</ele>
        <time>2021-09-03T14:57:11Z</time>
      </trkpt>
      <trkpt lat="44.86328" lon="5.19107">
        <ele>826</ele>
        <time>2021-09-03T14:58:28Z</time>
      </trkpt>
      <trkpt lat="44.86289" lon="5.19086">
        <ele>819</ele>
        <time>2021-09-03T14:59:24Z</time>
      </trkpt>
      <trkpt lat="44.86233" lon="5.19074">
        <ele>812</ele>
        <time>2021-09-03T15:00:39Z</time>
      </trkpt>
      <trkpt lat="44.86197" lon="5.19104">
        <ele>812</ele>
        <time>2021-09-03T15:01:35Z</time>
      </trkpt>
      <trkpt lat="44.86175" lon="5.19123">
        <ele>813</ele>
        <time>2021-09-03T15:02:10Z</time>
      </trkpt>
      <trkpt lat="44.86109" lon="5.19141">
        <ele>809</ele>
        <time>2021-09-03T15:03:39Z</time>
      </trkpt>
      <trkpt lat="44.86052" lon="5.19143">
        <ele>802</ele>
        <time>2021-09-03T15:04:55Z</time>
      </trkpt>
      <trkpt lat="44.86034" lon="5.19151">
        <ele>803</ele>
        <time>2021-09-03T15:05:21Z</time>
      </trkpt>
      <trkpt lat="44.85919" lon="5.19206">
        <ele>805</ele>
        <time>2021-09-03T15:08:03Z</time>
      </trkpt>
      <trkpt lat="44.85839" lon="5.19267">
        <ele>801</ele>
        <time>2021-09-03T15:10:04Z</time>
      </trkpt>
      <trkpt lat="44.85732" lon="5.19336">
        <ele>797</ele>
        <time>2021-09-03T15:12:41Z</time>
      </trkpt>
      <trkpt lat="44.85689" lon="5.19365">
        <ele>797</ele>
        <time>2021-09-03T15:13:45Z</time>
      </trkpt>
      <trkpt lat="44.85667" lon="5.19381">
        <ele>798</ele>
        <time>2021-09-03T15:14:18Z</time>
      </trkpt>
      <trkpt lat="44.8562" lon="5.19388">
        <ele>791</ele>
        <time>2021-09-03T15:15:21Z</time>
      </trkpt>
      <trkpt lat="44.85554" lon="5.19422">
        <ele>786</ele>
        <time>2021-09-03T15:16:54Z</time>
      </trkpt>
      <trkpt lat="44.85514" lon="5.19452">
        <ele>785</ele>
        <time>2021-09-03T15:17:55Z</time>
      </trkpt>
      <trkpt lat="44.85454" lon="5.19472">
        <ele>777</ele>
        <time>2021-09-03T15:19:17Z</time>
      </trkpt>
      <trkpt lat="44.85419" lon="5.1949">
        <ele>774</ele>
        <time>2021-09-03T15:20:07Z</time>
      </trkpt>
      <trkpt lat="44.85352" lon="5.19542">
        <ele>769</ele>
        <time>2021-09-03T15:21:49Z</time>
      </trkpt>
      <trkpt lat="44.85284" lon="5.1958">
        <ele>764</ele>
        <time>2021-09-03T15:23:27Z</time>
      </trkpt>
      <trkpt lat="44.85228" lon="5.19593">
        <ele>759</ele>
        <time>2021-09-03T15:24:42Z</time>
      </trkpt>
      <trkpt lat="44.85185" lon="5.19599">
        <ele>755</ele>
        <time>2021-09-03T15:25:40Z</time>
      </trkpt>
      <trkpt lat="44.85127" lon="5.19614">
        <ele>749</ele>
        <time>2021-09-03T15:26:59Z</time>
      </trkpt>
      <trkpt lat="44.8509" lon="5.19627">
        <ele>746</ele>
        <time>2021-09-03T15:27:49Z</time>
      </trkpt>
      <trkpt lat="44.84999" lon="5.19664">
        <ele>739</ele>
        <time>2021-09-03T15:29:56Z</time>
      </trkpt>
      <trkpt lat="44.84962" lon="5.19673">
        <ele>737</ele>
        <time>2021-09-03T15:30:46Z</time>
      </trkpt>
      <trkpt lat="44.84869" lon="5.19669">
        <ele>727</ele>
        <time>2021-09-03T15:32:50Z</time>
      </trkpt>
      <trkpt lat="44.84813" lon="5.19669">
        <ele>723</ele>
        <time>2021-09-03T15:34:05Z</time>
      </trkpt>
      <trkpt lat="44.84773" lon="5.19665">
        <ele>719</ele>
        <time>2021-09-03T15:34:58Z</time>
      </trkpt>
      <trkpt lat="44.84731" lon="5.19663">
        <ele>713</ele>
        <time>2021-09-03T15:35:54Z</time>
      </trkpt>
      <trkpt lat="44.84688" lon="5.19671">
        <ele>703</ele>
        <time>2021-09-03T15:36:52Z</time>
      </trkpt>
      <trkpt lat="44.84673" lon="5.19651">
        <ele>696</ele>
        <time>2021-09-03T15:37:20Z</time>
      </trkpt>
      <trkpt lat="44.84695" lon="5.1963">
        <ele>698</ele>
        <time>2021-09-03T15:37:55Z</time>
      </trkpt>
      <trkpt lat="44.8478" lon="5.19525">
        <ele>697</ele>
        <time>2021-09-03T15:40:26Z</time>
      </trkpt>
      <trkpt lat="44.84858" lon="5.19451">
        <ele>689</ele>
        <time>2021-09-03T15:42:32Z</time>
      </trkpt>
      <trkpt lat="44.84848" lon="5.1944">
        <ele>687</ele>
        <time>2021-09-03T15:42:48Z</time>
      </trkpt>
      <trkpt lat="44.84831" lon="5.19445">
        <ele>686</ele>
        <time>2021-09-03T15:43:12Z</time>
      </trkpt>
      <trkpt lat="44.84793" lon="5.19447">
        <ele>685</ele>
        <time>2021-09-03T15:44:02Z</time>
      </trkpt>
      <trkpt lat="44.84738" lon="5.19437">
        <ele>680</ele>
        <time>2021-09-03T15:45:16Z</time>
      </trkpt>
      <trkpt lat="44.84685" lon="5.19411">
        <ele>673</ele>
        <time>2021-09-03T15:46:31Z</time>
      </trkpt>
      <trkpt lat="44.84669" lon="5.194">
        <ele>671</ele>
        <time>2021-09-03T15:46:55Z</time>
      </trkpt>
      <trkpt lat="44.84635" lon="5.19382">
        <ele>664</ele>
        <time>2021-09-03T15:47:43Z</time>
      </trkpt>
      <trkpt lat="44.84649" lon="5.19339">
        <ele>664</ele>
        <time>2021-09-03T15:48:28Z</time>
      </trkpt>
      <trkpt lat="44.84688" lon="5.19278">
        <ele>664</ele>
        <time>2021-09-03T15:49:46Z</time>
      </trkpt>
      <trkpt lat="44.84673" lon="5.19262">
        <ele>662</ele>
        <time>2021-09-03T15:50:11Z</time>
      </trkpt>
      <trkpt lat="44.84673" lon="5.19263">
        <ele>662.2</ele>
      </trkpt>
      <trkpt lat="44.84678" lon="5.19262">
        <ele>662.4</ele>
      </trkpt>
      <trkpt lat="44.84687" lon="5.19258">
        <ele>662.7</ele>
      </trkpt>
      <trkpt lat="44.84693" lon="5.19255">
        <ele>662.9</ele>
      </trkpt>
      <trkpt lat="44.84703" lon="5.19245">
        <ele>662.7</ele>
      </trkpt>
      <trkpt lat="44.84715" lon="5.19237">
        <ele>662.6</ele>
      </trkpt>
      <trkpt lat="44.84729" lon="5.19229">
        <ele>662.4</ele>
      </trkpt>
      <trkpt lat="44.8474" lon="5.19221">
        <ele>662</ele>
      </trkpt>
      <trkpt lat="44.84744" lon="5.1922">
        <ele>662.1</ele>
      </trkpt>
      <trkpt lat="44.84749" lon="5.19219">
        <ele>662.2</ele>
      </trkpt>
      <trkpt lat="44.84754" lon="5.1922">
        <ele>662.3</ele>
      </trkpt>
      <trkpt lat="44.8476" lon="5.19221">
        <ele>662.5</ele>
      </trkpt>
      <trkpt lat="44.84765" lon="5.19223">
        <ele>662.6</ele>
      </trkpt>
      <trkpt lat="44.84776" lon="5.19224">
        <ele>662.7</ele>
      </trkpt>
      <trkpt lat="44.84787" lon="5.19224">
        <ele>662.5</ele>
      </trkpt>
      <trkpt lat="44.84799" lon="5.19221">
        <ele>662.1</ele>
      </trkpt>
      <trkpt lat="44.84807" lon="5.19217">
        <ele>661.6</ele>
      </trkpt>
      <trkpt lat="44.84811" lon="5.19213">
        <ele>661.1</ele>
      </trkpt>
      <trkpt lat="44.84815" lon="5.19205">
        <ele>660.2</ele>
      </trkpt>
      <trkpt lat="44.84822" lon="5.19195">
        <ele>659.1</ele>
      </trkpt>
      <trkpt lat="44.84827" lon="5.19189">
        <ele>658.4</ele>
      </trkpt>
      <trkpt lat="44.84831" lon="5.19186">
        <ele>658.1</ele>
      </trkpt>
      <trkpt lat="44.84834" lon="5.19184">
        <ele>657.8</ele>
      </trkpt>
      <trkpt lat="44.84834" lon="5.19183">
        <ele>657.8</ele>
      </trkpt>
      <trkpt lat="44.84838" lon="5.19181">
        <ele>657.6</ele>
      </trkpt>
      <trkpt lat="44.84837" lon="5.19176">
        <ele>657</ele>
      </trkpt>
      <trkpt lat="44.84833" lon="5.1917">
        <ele>656.3</ele>
      </trkpt>
      <trkpt lat="44.84827" lon="5.19162">
        <ele>655.6</ele>
      </trkpt>
      <trkpt lat="44.84818" lon="5.19155">
        <ele>655</ele>
      </trkpt>
      <trkpt lat="44.84804" lon="5.19134">
        <ele>652.9</ele>
      </trkpt>
      <trkpt lat="44.84798" lon="5.19123">
        <ele>651.7</ele>
      </trkpt>
      <trkpt lat="44.84792" lon="5.19116">
        <ele>650.9</ele>
      </trkpt>
      <trkpt lat="44.84785" lon="5.19097">
        <ele>648.6</ele>
      </trkpt>
      <trkpt lat="44.8478" lon="5.19086">
        <ele>647.1</ele>
      </trkpt>
      <trkpt lat="44.8477" lon="5.19069">
        <ele>646.8</ele>
      </trkpt>
      <trkpt lat="44.84765" lon="5.19057">
        <ele>646.8</ele>
      </trkpt>
      <trkpt lat="44.8476" lon="5.1905">
        <ele>646.4</ele>
      </trkpt>
      <trkpt lat="44.84754" lon="5.19049">
        <ele>645.9</ele>
      </trkpt>
      <trkpt lat="44.84748" lon="5.19049">
        <ele>645.6</ele>
      </trkpt>
      <trkpt lat="44.84741" lon="5.19047">
        <ele>646.2</ele>
      </trkpt>
      <trkpt lat="44.84734" lon="5.19044">
        <ele>646.8</ele>
      </trkpt>
      <trkpt lat="44.84728" lon="5.19039">
        <ele>647.4</ele>
      </trkpt>
      <trkpt lat="44.84724" lon="5.19035">
        <ele>647.7</ele>
      </trkpt>
      <trkpt lat="44.84718" lon="5.19024">
        <ele>648.1</ele>
      </trkpt>
      <trkpt lat="44.84716" lon="5.19007">
        <ele>648.1</ele>
      </trkpt>
      <trkpt lat="44.84716" lon="5.18995">
        <ele>648.6</ele>
      </trkpt>
      <trkpt lat="44.84715" lon="5.18979">
        <ele>650.5</ele>
      </trkpt>
      <trkpt lat="44.84715" lon="5.18969">
        <ele>651.6</ele>
      </trkpt>
      <trkpt lat="44.84715" lon="5.18957">
        <ele>653</ele>
      </trkpt>
      <trkpt lat="44.84715" lon="5.18941">
        <ele>654.8</ele>
      </trkpt>
      <trkpt lat="44.84713" lon="5.18928">
        <ele>656</ele>
      </trkpt>
      <trkpt lat="44.84711" lon="5.1892">
        <ele>656.6</ele>
      </trkpt>
      <trkpt lat="44.84709" lon="5.18916">
        <ele>657</ele>
      </trkpt>
      <trkpt lat="44.84709" lon="5.18905">
        <ele>660</ele>
      </trkpt>
      <trkpt lat="44.84704" lon="5.18894">
        <ele>662.5</ele>
      </trkpt>
      <trkpt lat="44.84694" lon="5.18885">
        <ele>663.6</ele>
      </trkpt>
      <trkpt lat="44.84685" lon="5.18882">
        <ele>663.1</ele>
      </trkpt>
      <trkpt lat="44.84679" lon="5.1888">
        <ele>662.6</ele>
      </trkpt>
      <trkpt lat="44.84671" lon="5.18882">
        <ele>660.7</ele>
      </trkpt>
      <trkpt lat="44.8466" lon="5.18887">
        <ele>658.7</ele>
      </trkpt>
      <trkpt lat="44.84644" lon="5.18892">
        <ele>657.9</ele>
      </trkpt>
      <trkpt lat="44.84632" lon="5.18895">
        <ele>657.5</ele>
      </trkpt>
      <trkpt lat="44.84623" lon="5.18895">
        <ele>657.8</ele>
      </trkpt>
      <trkpt lat="44.84613" lon="5.18892">
        <ele>658.7</ele>
      </trkpt>
      <trkpt lat="44.84607" lon="5.18889">
        <ele>659.7</ele>
      </trkpt>
      <trkpt lat="44.84602" lon="5.18882">
        <ele>661.4</ele>
      </trkpt>
      <trkpt lat="44.84601" lon="5.18881">
        <ele>661.8</ele>
      </trkpt>
      <trkpt lat="44.84598" lon="5.18876">
        <ele>663</ele>
      </trkpt>
      <trkpt lat="44.84598" lon="5.18872">
        <ele>664</ele>
      </trkpt>
      <trkpt lat="44.84599" lon="5.1887">
        <ele>664.5</ele>
      </trkpt>
      <trkpt lat="44.84608" lon="5.18869">
        <ele>664.6</ele>
      </trkpt>
      <trkpt lat="44.84627" lon="5.18867">
        <ele>664.9</ele>
      </trkpt>
      <trkpt lat="44.84639" lon="5.18861">
        <ele>666.3</ele>
      </trkpt>
      <trkpt lat="44.84654" lon="5.18852">
        <ele>668.6</ele>
      </trkpt>
      <trkpt lat="44.84668" lon="5.18846">
        <ele>670.5</ele>
      </trkpt>
      <trkpt lat="44.84673" lon="5.18843">
        <ele>672.4</ele>
      </trkpt>
      <trkpt lat="44.84678" lon="5.18841">
        <ele>673.6</ele>
      </trkpt>
      <trkpt lat="44.84691" lon="5.18841">
        <ele>676</ele>
      </trkpt>
      <trkpt lat="44.84704" lon="5.18842">
        <ele>677.8</ele>
      </trkpt>
      <trkpt lat="44.84713" lon="5.18843">
        <ele>679</ele>
      </trkpt>
      <trkpt lat="44.8472" lon="5.18846">
        <ele>679.1</ele>
      </trkpt>
      <trkpt lat="44.8473" lon="5.18852">
        <ele>679.1</ele>
      </trkpt>
      <trkpt lat="44.84739" lon="5.18856">
        <ele>679.5</ele>
      </trkpt>
      <trkpt lat="44.84744" lon="5.18857">
        <ele>679.9</ele>
      </trkpt>
      <trkpt lat="44.8475" lon="5.18857">
        <ele>680.9</ele>
      </trkpt>
      <trkpt lat="44.84764" lon="5.18853">
        <ele>683.5</ele>
      </trkpt>
      <trkpt lat="44.85005" lon="5.18717">
        <ele>741.3</ele>
      </trkpt>
      <trkpt lat="44.8507" lon="5.18727">
        <ele>741.3</ele>
      </trkpt>
      <trkpt lat="44.85074" lon="5.18721">
        <ele>743.4</ele>
      </trkpt>
      <trkpt lat="44.85078" lon="5.18715">
        <ele>745.9</ele>
      </trkpt>
      <trkpt lat="44.85079" lon="5.1871">
        <ele>747.7</ele>
      </trkpt>
      <trkpt lat="44.85082" lon="5.18706">
        <ele>749.2</ele>
      </trkpt>
      <trkpt lat="44.85084" lon="5.18707">
        <ele>749.2</ele>
      </trkpt>
      <trkpt lat="44.85086" lon="5.1871">
        <ele>748.1</ele>
      </trkpt>
      <trkpt lat="44.85091" lon="5.18713">
        <ele>747.4</ele>
      </trkpt>
      <trkpt lat="44.85098" lon="5.18715">
        <ele>747.1</ele>
      </trkpt>
      <trkpt lat="44.85112" lon="5.18714">
        <ele>748.3</ele>
      </trkpt>
      <trkpt lat="44.85125" lon="5.18711">
        <ele>750.1</ele>
      </trkpt>
      <trkpt lat="44.85133" lon="5.18711">
        <ele>750.7</ele>
      </trkpt>
      <trkpt lat="44.85141" lon="5.18709">
        <ele>751.8</ele>
      </trkpt>
      <trkpt lat="44.85148" lon="5.18708">
        <ele>752.4</ele>
      </trkpt>
      <trkpt lat="44.85157" lon="5.18708">
        <ele>752.9</ele>
      </trkpt>
      <trkpt lat="44.85165" lon="5.18707">
        <ele>753.9</ele>
      </trkpt>
      <trkpt lat="44.85169" lon="5.18704">
        <ele>755.1</ele>
      </trkpt>
      <trkpt lat="44.8518" lon="5.18702">
        <ele>756.7</ele>
      </trkpt>
      <trkpt lat="44.85182" lon="5.18699">
        <ele>757.9</ele>
      </trkpt>
      <trkpt lat="44.85183" lon="5.18695">
        <ele>759.2</ele>
      </trkpt>
      <trkpt lat="44.85185" lon="5.18691">
        <ele>760.7</ele>
      </trkpt>
      <trkpt lat="44.85187" lon="5.18688">
        <ele>761.7</ele>
      </trkpt>
      <trkpt lat="44.85193" lon="5.18687">
        <ele>762.7</ele>
      </trkpt>
      <trkpt lat="44.85203" lon="5.18684">
        <ele>764.4</ele>
      </trkpt>
      <trkpt lat="44.85214" lon="5.18681">
        <ele>766.5</ele>
      </trkpt>
      <trkpt lat="44.85224" lon="5.18678">
        <ele>768.3</ele>
      </trkpt>
      <trkpt lat="44.85232" lon="5.18675">
        <ele>769.7</ele>
      </trkpt>
      <trkpt lat="44.85238" lon="5.18675">
        <ele>770.3</ele>
      </trkpt>
      <trkpt lat="44.85242" lon="5.18675">
        <ele>770.6</ele>
      </trkpt>
      <trkpt lat="44.85246" lon="5.18674">
        <ele>771.2</ele>
      </trkpt>
      <trkpt lat="44.85246" lon="5.18672">
        <ele>772</ele>
      </trkpt>
      <trkpt lat="44.85245" lon="5.18669">
        <ele>772.8</ele>
      </trkpt>
      <trkpt lat="44.85243" lon="5.18666">
        <ele>773.7</ele>
      </trkpt>
      <trkpt lat="44.85246" lon="5.18663">
        <ele>775.2</ele>
      </trkpt>
      <trkpt lat="44.85255" lon="5.18662">
        <ele>776.4</ele>
      </trkpt>
      <trkpt lat="44.85264" lon="5.1866">
        <ele>778.3</ele>
      </trkpt>
      <trkpt lat="44.85273" lon="5.18656">
        <ele>780.9</ele>
      </trkpt>
      <trkpt lat="44.85281" lon="5.18651">
        <ele>783.7</ele>
      </trkpt>
      <trkpt lat="44.85289" lon="5.18649">
        <ele>785.6</ele>
      </trkpt>
      <trkpt lat="44.85299" lon="5.18645">
        <ele>788.2</ele>
      </trkpt>
      <trkpt lat="44.85308" lon="5.18641">
        <ele>790.6</ele>
      </trkpt>
      <trkpt lat="44.85346" lon="5.18581">
        <ele>817</ele>
      </trkpt>
      <trkpt lat="44.85404" lon="5.186">
        <ele>814.3</ele>
      </trkpt>
      <trkpt lat="44.85411" lon="5.18595">
        <ele>816.9</ele>
      </trkpt>
      <trkpt lat="44.85421" lon="5.18591">
        <ele>819.3</ele>
      </trkpt>
      <trkpt lat="44.85432" lon="5.18587">
        <ele>821.1</ele>
      </trkpt>
      <trkpt lat="44.85448" lon="5.18579">
        <ele>825</ele>
      </trkpt>
      <trkpt lat="44.85458" lon="5.18569">
        <ele>829.4</ele>
      </trkpt>
      <trkpt lat="44.85471" lon="5.18556">
        <ele>834.8</ele>
      </trkpt>
      <trkpt lat="44.8549" lon="5.18537">
        <ele>843.5</ele>
      </trkpt>
      <trkpt lat="44.85506" lon="5.18523">
        <ele>849.3</ele>
      </trkpt>
      <trkpt lat="44.85523" lon="5.1851">
        <ele>853.1</ele>
      </trkpt>
      <trkpt lat="44.85538" lon="5.18497">
        <ele>857.5</ele>
      </trkpt>
      <trkpt lat="44.8555" lon="5.18485">
        <ele>862.4</ele>
      </trkpt>
      <trkpt lat="44.8556" lon="5.18474">
        <ele>867.3</ele>
      </trkpt>
      <trkpt lat="44.85568" lon="5.18464">
        <ele>872.2</ele>
      </trkpt>
      <trkpt lat="44.85579" lon="5.18453">
        <ele>877.6</ele>
      </trkpt>
      <trkpt lat="44.85591" lon="5.18444">
        <ele>882.1</ele>
      </trkpt>
      <trkpt lat="44.85604" lon="5.18436">
        <ele>886.1</ele>
      </trkpt>
      <trkpt lat="44.85617" lon="5.18431">
        <ele>888.5</ele>
      </trkpt>
      <trkpt lat="44.85633" lon="5.18427">
        <ele>890.9</ele>
      </trkpt>
      <trkpt lat="44.8565" lon="5.1842">
        <ele>894.1</ele>
      </trkpt>
      <trkpt lat="44.85667" lon="5.18412">
        <ele>898.1</ele>
      </trkpt>
      <trkpt lat="44.85668" lon="5.1841">
        <ele>898.9</ele>
      </trkpt>
      <trkpt lat="44.85667" lon="5.18407">
        <ele>900</ele>
      </trkpt>
      <trkpt lat="44.85656" lon="5.18395">
        <ele>904.6</ele>
      </trkpt>
      <trkpt lat="44.85611" lon="5.18331">
        <ele>929.8</ele>
      </trkpt>
      <trkpt lat="44.8562" lon="5.18326">
        <ele>931.7</ele>
      </trkpt>
      <trkpt lat="44.85638" lon="5.18314">
        <ele>936.5</ele>
      </trkpt>
      <trkpt lat="44.85664" lon="5.18295">
        <ele>944.1</ele>
      </trkpt>
      <trkpt lat="44.85679" lon="5.18286">
        <ele>946.8</ele>
      </trkpt>
      <trkpt lat="44.85697" lon="5.18275">
        <ele>950.1</ele>
      </trkpt>
      <trkpt lat="44.85719" lon="5.18265">
        <ele>952.2</ele>
      </trkpt>
      <trkpt lat="44.85734" lon="5.18256">
        <ele>954.7</ele>
      </trkpt>
      <trkpt lat="44.85753" lon="5.18235">
        <ele>962.1</ele>
      </trkpt>
      <trkpt lat="44.85772" lon="5.1822">
        <ele>968.1</ele>
      </trkpt>
      <trkpt lat="44.85797" lon="5.182">
        <ele>974.8</ele>
      </trkpt>
      <trkpt lat="44.85816" lon="5.18185">
        <ele>979.5</ele>
      </trkpt>
      <trkpt lat="44.85835" lon="5.18173">
        <ele>983</ele>
      </trkpt>
      <trkpt lat="44.85857" lon="5.18159">
        <ele>986.5</ele>
      </trkpt>
      <trkpt lat="44.85875" lon="5.18149">
        <ele>988.7</ele>
      </trkpt>
      <trkpt lat="44.85894" lon="5.1814">
        <ele>990</ele>
      </trkpt>
      <trkpt lat="44.85912" lon="5.18133">
        <ele>990.8</ele>
      </trkpt>
      <trkpt lat="44.85928" lon="5.18132">
        <ele>991</ele>
      </trkpt>
      <trkpt lat="44.85948" lon="5.1813">
        <ele>992.1</ele>
      </trkpt>
      <trkpt lat="44.85967" lon="5.18128">
        <ele>993</ele>
      </trkpt>
      <trkpt lat="44.85983" lon="5.18128">
        <ele>993.3</ele>
      </trkpt>
      <trkpt lat="44.85994" lon="5.18128">
        <ele>993.7</ele>
      </trkpt>
      <trkpt lat="44.86" lon="5.18128">
        <ele>993.8</ele>
      </trkpt>
      <trkpt lat="44.86015" lon="5.18124">
        <ele>996.1</ele>
      </trkpt>
      <trkpt lat="44.86028" lon="5.18124">
        <ele>997.8</ele>
      </trkpt>
      <trkpt lat="44.86037" lon="5.18123">
        <ele>999.2</ele>
      </trkpt>
      <trkpt lat="44.86046" lon="5.18119">
        <ele>1000.5</ele>
      </trkpt>
      <trkpt lat="44.8605" lon="5.18117">
        <ele>1001.2</ele>
      </trkpt>
      <trkpt lat="44.86057" lon="5.18112">
        <ele>1002.2</ele>
      </trkpt>
      <trkpt lat="44.8607" lon="5.18101">
        <ele>1004.2</ele>
      </trkpt>
      <trkpt lat="44.86088" lon="5.18086">
        <ele>1006.4</ele>
      </trkpt>
      <trkpt lat="44.86105" lon="5.18068">
        <ele>1006.9</ele>
      </trkpt>
      <trkpt lat="44.86119" lon="5.18047">
        <ele>1007.2</ele>
      </trkpt>
      <trkpt lat="44.86125" lon="5.18033">
        <ele>1007.3</ele>
      </trkpt>
      <trkpt lat="44.86131" lon="5.1802">
        <ele>1007.5</ele>
      </trkpt>
      <trkpt lat="44.86138" lon="5.18004">
        <ele>1008</ele>
      </trkpt>
      <trkpt lat="44.86136" lon="5.17996">
        <ele>1007.5</ele>
      </trkpt>
      <trkpt lat="44.86135" lon="5.1799">
        <ele>1007.5</ele>
      </trkpt>
      <trkpt lat="44.86135" lon="5.17982">
        <ele>1007.5</ele>
      </trkpt>
      <trkpt lat="44.86135" lon="5.17972">
        <ele>1007.6</ele>
      </trkpt>
      <trkpt lat="44.86136" lon="5.1796">
        <ele>1008</ele>
      </trkpt>
      <trkpt lat="44.86137" lon="5.17948">
        <ele>1008.5</ele>
      </trkpt>
      <trkpt lat="44.8614" lon="5.17933">
        <ele>1009.3</ele>
      </trkpt>
      <trkpt lat="44.86141" lon="5.17919">
        <ele>1009.9</ele>
      </trkpt>
      <trkpt lat="44.86142" lon="5.17906">
        <ele>1011.2</ele>
      </trkpt>
      <trkpt lat="44.8614" lon="5.1789">
        <ele>1012.3</ele>
      </trkpt>
      <trkpt lat="44.86134" lon="5.17869">
        <ele>1012.9</ele>
      </trkpt>
      <trkpt lat="44.86128" lon="5.17847">
        <ele>1012.7</ele>
      </trkpt>
      <trkpt lat="44.86121" lon="5.17825">
        <ele>1012.7</ele>
      </trkpt>
      <trkpt lat="44.86114" lon="5.17804">
        <ele>1012.8</ele>
      </trkpt>
      <trkpt lat="44.86107" lon="5.17786">
        <ele>1011.8</ele>
      </trkpt>
      <trkpt lat="44.86096" lon="5.17764">
        <ele>1009.3</ele>
      </trkpt>
      <trkpt lat="44.86089" lon="5.17748">
        <ele>1007.4</ele>
      </trkpt>
      <trkpt lat="44.86085" lon="5.17735">
        <ele>1005.4</ele>
      </trkpt>
      <trkpt lat="44.86084" lon="5.17727">
        <ele>1004.6</ele>
      </trkpt>
      <trkpt lat="44.86084" lon="5.17718">
        <ele>1004.3</ele>
      </trkpt>
      <trkpt lat="44.86086" lon="5.17703">
        <ele>1004.4</ele>
      </trkpt>
      <trkpt lat="44.86088" lon="5.17684">
        <ele>1004.9</ele>
      </trkpt>
      <trkpt lat="44.86093" lon="5.17662">
        <ele>1005.9</ele>
      </trkpt>
      <trkpt lat="44.86101" lon="5.17637">
        <ele>1005.2</ele>
      </trkpt>
      <trkpt lat="44.86114" lon="5.17609">
        <ele>1005.2</ele>
      </trkpt>
      <trkpt lat="44.86126" lon="5.17586">
        <ele>1004.2</ele>
      </trkpt>
      <trkpt lat="44.86138" lon="5.17559">
        <ele>1002.6</ele>
      </trkpt>
      <trkpt lat="44.86146" lon="5.17537">
        <ele>1000.3</ele>
      </trkpt>
      <trkpt lat="44.86152" lon="5.17523">
        <ele>998.8</ele>
      </trkpt>
      <trkpt lat="44.86162" lon="5.17507">
        <ele>997.7</ele>
      </trkpt>
      <trkpt lat="44.86176" lon="5.17485">
        <ele>995.4</ele>
      </trkpt>
      <trkpt lat="44.86192" lon="5.17464">
        <ele>993.3</ele>
      </trkpt>
      <trkpt lat="44.86213" lon="5.17436">
        <ele>990.5</ele>
      </trkpt>
      <trkpt lat="44.86232" lon="5.1741">
        <ele>988.5</ele>
      </trkpt>
      <trkpt lat="44.86245" lon="5.17389">
        <ele>988.7</ele>
      </trkpt>
      <trkpt lat="44.86259" lon="5.17365">
        <ele>987.9</ele>
      </trkpt>
      <trkpt lat="44.86271" lon="5.17341">
        <ele>987.2</ele>
      </trkpt>
      <trkpt lat="44.86276" lon="5.17321">
        <ele>988</ele>
      </trkpt>
      <trkpt lat="44.86274" lon="5.17321">
        <ele>988</ele>
      </trkpt>
    </trkseg>
  </trk>
</gpx>